Anawalt, West Virginia
Current Conditions -  °F | °C
As of 2:52 AM on Friday 31 Oct 2014 (Local Time) from KBLF Reporting Station
Clear Clear  
Wind Chill: 36°   Ceiling: Unl
Heat Index: 36°   Visibility: 10mi
Dew Point: 30°   Wind: 0mph
Humidity: 79%   Direction: NA
Pressure: 29.99"   Gusts: NA
Location:  37.34°N, 81.44°W
Report Text: KBLF 310652Z AUTO 00000KT 10SM CLR 02/M01 A2999 RMK AO2 SLP155 T00221011
Loading
Personal Weather Stations






























Interactive Weather Map
Tropical Storm Tracking
New forecast layout! Learn more

10-Day Weather Forecast

Advertisements
Track Severe Weather on mobile